Lovetch, Bulgaria
Current Conditions -  °F | °C
As of 8:00 PM on Wednesday 26 Nov 2014 (Local Time) from LBGO Reporting Station
Overcast Overcast  
Wind Chill: 25°   Ceiling: 1700
Heat Index: 30°   Visibility: 6mi
Dew Point: 25°   Wind: 4mph
Humidity: 80%   Direction: NA
Pressure: 30.33"   Gusts: NA
Location:  43.13°N, 24.72°E
Report Text: LBGO 261700Z VRB02MPS 9999 OVC017 M01/M04 Q1027 NOSIG
Loading
Personal Weather Stations






























Interactive Weather Map New forecast layout! Learn more

10-Day Weather Forecast

Advertisements
Track Severe Weather on mobile